Time;durP1;ratioP1;P1;durP2;ratioP2;P2;SDS_P1;SDS_P2;PMS_P1;PMS_P2;Temp;Humidity;BMP_temperature;BMP_pressure;BME280_temperature;BME280_humidity;BME280_pressure;Samples;Min_cycle;Max_cycle;Signal;HPM_P1;HPM_P2
2023/05/10 00:01:39;;;;;;;16.55;7.35;;;;;;;10.85;100.00;98020.09;5095361;28;20122;-78
2023/05/10 00:04:04;;;;;;;10.45;6.65;;;;;;;10.88;100.00;98026.16;5095457;28;20384;-78
2023/05/10 00:06:30;;;;;;;12.63;7.82;;;;;;;10.96;100.00;98027.50;5095432;28;20032;-78
2023/05/10 00:08:55;;;;;;;15.02;7.95;;;;;;;10.84;100.00;98015.69;5112798;28;20432;-78
2023/05/10 00:11:21;;;;;;;13.45;8.40;;;;;;;10.75;100.00;98021.53;5112383;28;20034;-78
2023/05/10 00:13:47;;;;;;;16.88;8.10;;;;;;;10.80;100.00;98022.13;5095426;28;20028;-78
2023/05/10 00:16:12;;;;;;;15.15;8.90;;;;;;;10.83;100.00;98021.97;5112505;28;20031;-77
2023/05/10 00:18:39;;;;;;;12.10;7.63;;;;;;;10.86;100.00;98025.34;5095140;28;20406;-77
2023/05/10 00:21:04;;;;;;;15.65;7.97;;;;;;;10.92;100.00;98025.97;5091856;28;20488;-77
2023/05/10 00:23:30;;;;;;;14.35;7.30;;;;;;;10.95;100.00;98021.28;5108902;28;20031;-77
2023/05/10 00:25:56;;;;;;;13.60;8.40;;;;;;;10.98;100.00;98021.16;5108785;28;20046;-77
2023/05/10 00:28:21;;;;;;;14.35;8.68;;;;;;;11.03;100.00;98013.72;5108939;28;20039;-78
2023/05/10 00:30:47;;;;;;;16.67;8.82;;;;;;;11.04;100.00;98009.22;5108624;28;20131;-77
2023/05/10 00:33:12;;;;;;;13.10;8.18;;;;;;;11.05;100.00;98018.97;5121489;27;20104;-77
2023/05/10 00:35:38;;;;;;;18.95;8.95;;;;;;;11.01;100.00;98012.94;5111980;28;20383;-78
2023/05/10 00:38:03;;;;;;;16.35;8.63;;;;;;;11.02;100.00;98011.97;5094900;28;20475;-78
2023/05/10 00:40:30;;;;;;;16.63;8.93;;;;;;;11.04;100.00;98006.53;5111806;28;20086;-78
2023/05/10 00:42:56;;;;;;;13.55;7.95;;;;;;;11.08;100.00;98000.91;5111753;28;20506;-77
2023/05/10 00:45:22;;;;;;;13.52;7.93;;;;;;;11.00;100.00;98000.50;5111972;28;20046;-77
2023/05/10 00:47:48;;;;;;;16.92;8.50;;;;;;;11.04;100.00;98001.19;5111660;28;20024;-77
2023/05/10 00:50:14;;;;;;;13.60;8.32;;;;;;;10.97;100.00;97998.00;5094788;28;20038;-78
2023/05/10 00:52:40;;;;;;;17.23;8.13;;;;;;;10.81;100.00;97984.59;5094527;28;20043;-77
2023/05/10 00:55:06;;;;;;;13.30;8.02;;;;;;;10.72;100.00;97989.59;5094694;28;20030;-77
2023/05/10 00:57:32;;;;;;;13.85;8.57;;;;;;;10.77;100.00;97984.84;5094439;28;20049;-77
2023/05/10 00:59:58;;;;;;;15.70;8.60;;;;;;;10.89;100.00;97994.88;5094494;28;20119;-76
2023/05/10 01:02:24;;;;;;;15.00;8.75;;;;;;;10.92;100.00;98000.03;5094884;28;20058;-77
2023/05/10 01:04:49;;;;;;;13.98;9.02;;;;;;;10.82;100.00;97981.00;5094353;28;20038;-77
2023/05/10 01:07:15;;;;;;;14.45;8.52;;;;;;;10.84;100.00;97981.75;5094435;28;20118;-77
2023/05/10 01:09:41;;;;;;;20.15;9.30;;;;;;;10.91;100.00;97993.00;5094245;28;20471;-77
2023/05/10 01:12:07;;;;;;;12.88;8.20;;;;;;;10.89;100.00;97986.84;5111628;28;20084;-77
2023/05/10 01:14:33;;;;;;;13.15;9.05;;;;;;;10.93;100.00;97990.22;5094343;28;20029;-77
2023/05/10 01:17:00;;;;;;;13.73;8.80;;;;;;;10.87;100.00;97983.41;5111391;28;20111;-76
2023/05/10 01:19:27;;;;;;;13.75;8.68;;;;;;;10.86;100.00;97984.34;5094316;28;20031;-77
2023/05/10 01:21:58;;;;;;;24.40;11.60;;;;;;;10.87;100.00;97992.28;5094253;28;20054;-77
2023/05/10 01:24:45;;;;;;;17.27;10.23;;;;;;;10.80;100.00;97987.34;5111275;28;20080;-78
2023/05/10 01:27:32;;;;;;;18.10;10.15;;;;;;;10.79;100.00;97993.69;5111206;28;20030;-77
2023/05/10 01:30:33;;;;;;;18.88;9.80;;;;;;;10.80;100.00;97984.69;5111955;28;20031;-77
2023/05/10 01:33:07;;;;;;;14.90;8.68;;;;;;;10.73;100.00;97978.84;5066549;28;20486;-77
2023/05/10 01:35:36;;;;;;;13.82;9.30;;;;;;;10.77;100.00;97991.06;5094161;28;20031;-77
2023/05/10 01:38:07;;;;;;;19.30;9.88;;;;;;;10.74;100.00;97979.66;5094029;28;20043;-77
2023/05/10 01:40:40;;;;;;;15.63;8.73;;;;;;;10.70;100.00;97976.31;5094108;28;20031;-77
2023/05/10 01:43:07;;;;;;;;;;;;;;;10.76;100.00;97977.78;5111517;28;20019;-77
2023/05/10 01:46:04;;;;;;;17.33;9.57;;;;;;;10.65;100.00;97980.19;5111055;28;19918;-77
2023/05/10 01:48:30;;;;;;;15.10;8.77;;;;;;;10.59;100.00;97977.84;5093201;28;20043;-77
2023/05/10 01:50:56;;;;;;;13.75;8.73;;;;;;;10.56;100.00;97973.53;5093866;28;20038;-77
2023/05/10 01:53:22;;;;;;;16.13;9.40;;;;;;;10.61;100.00;97976.81;5094064;28;20559;-77
2023/05/10 01:55:50;;;;;;;17.02;9.55;;;;;;;10.62;100.00;97985.69;5093975;28;20047;-77
2023/05/10 01:58:30;;;;;;;15.80;9.70;;;;;;;10.63;100.00;97982.94;5094052;28;20035;-77
2023/05/10 02:00:58;;;;;;;18.83;10.20;;;;;;;10.67;100.00;97992.56;5093808;28;20024;-76
2023/05/10 02:03:26;;;;;;;18.65;10.32;;;;;;;10.70;100.00;97988.84;5085190;28;20048;-77
2023/05/10 02:05:53;;;;;;;16.63;10.00;;;;;;;10.82;100.00;97988.16;5110470;28;20024;-77
2023/05/10 02:08:21;;;;;;;16.02;9.25;;;;;;;10.84;100.00;97975.53;5093819;28;20035;-77
2023/05/10 02:10:47;;;;;;;15.65;8.85;;;;;;;10.85;100.00;97980.81;5093828;28;20088;-78
2023/05/10 02:13:14;;;;;;;15.32;9.15;;;;;;;10.80;100.00;97979.31;5093793;28;20023;-78
2023/05/10 02:15:40;;;;;;;16.67;7.78;;;;;;;10.78;100.00;97970.53;5093884;28;20024;-78
2023/05/10 02:18:06;;;;;;;14.13;8.93;;;;;;;10.81;100.00;97967.69;5093687;28;20411;-77
2023/05/10 02:20:32;;;;;;;14.20;8.35;;;;;;;10.83;100.00;97968.44;5093450;28;20023;-78
2023/05/10 02:22:58;;;;;;;14.50;8.88;;;;;;;10.83;100.00;97971.13;5093713;28;20403;-77
2023/05/10 02:25:24;;;;;;;15.35;9.15;;;;;;;10.82;100.00;97969.41;5093611;28;20031;-78
2023/05/10 02:27:51;;;;;;;18.58;9.32;;;;;;;10.65;100.00;97962.31;5110712;28;20409;-78
2023/05/10 02:30:18;;;;;;;18.15;9.35;;;;;;;10.75;100.00;97978.72;5110907;28;20384;-77
2023/05/10 02:32:44;;;;;;;15.32;8.77;;;;;;;10.81;100.00;97975.72;5093345;28;20130;-78
2023/05/10 02:35:10;;;;;;;24.33;9.90;;;;;;;10.69;100.00;97961.22;5093504;28;20503;-78
2023/05/10 02:37:37;;;;;;;15.00;9.60;;;;;;;10.71;100.00;97961.97;5093459;28;20058;-78
2023/05/10 02:40:03;;;;;;;14.98;8.75;;;;;;;10.79;100.00;97961.56;5093313;28;20027;-78
2023/05/10 02:42:31;;;;;;;14.65;8.85;;;;;;;10.81;100.00;97955.16;5113178;28;20028;-78
2023/05/10 02:45:10;;;;;;;17.08;8.48;;;;;;;10.83;100.00;97953.25;5097297;28;20032;-78
2023/05/10 02:47:36;;;;;;;15.20;8.68;;;;;;;10.80;100.00;97952.56;5097194;28;20028;-78
2023/05/10 02:50:02;;;;;;;20.08;8.68;;;;;;;10.82;100.00;97948.88;5096952;28;20368;-77
2023/05/10 02:52:31;;;;;;;7.75;4.85;;;;;;;10.79;100.00;97940.16;5096891;28;20027;-78
2023/05/10 02:55:03;;;;;;;10.27;6.82;;;;;;;10.83;100.00;97928.31;5096970;28;20501;-77
2023/05/10 02:57:30;;;;;;;;;;;;;;;10.85;100.00;97924.63;5097369;28;20503;-77
2023/05/10 02:59:56;;;;;;;13.13;8.05;;;;;;;10.87;100.00;97919.16;5131160;27;20371;-77
2023/05/10 03:02:21;;;;;;;11.48;6.35;;;;;;;10.78;100.00;97906.31;5096659;28;20019;-78
2023/05/10 03:04:47;;;;;;;5.50;3.95;;;;;;;10.65;100.00;97878.53;5096997;28;20023;-77
2023/05/10 03:07:13;;;;;;;4.95;3.50;;;;;;;10.61;100.00;97834.19;5096692;28;20027;-77
2023/05/10 03:09:38;;;;;;;5.88;3.30;;;;;;;10.39;100.00;97788.22;5113560;28;20410;-77
2023/05/10 03:12:10;;;;;;;4.93;3.40;;;;;;;10.27;100.00;97773.75;5096605;28;20030;-77
2023/05/10 03:15:11;;;;;;;8.07;2.67;;;;;;;10.11;100.00;97776.41;5113404;28;20031;-77
2023/05/10 03:17:46;;;;;;;6.28;3.10;;;;;;;9.95;100.00;97750.63;5096279;28;20079;-77
2023/05/10 03:20:14;;;;;;;4.68;2.80;;;;;;;9.87;100.00;97756.41;5114571;28;20470;-77
2023/05/10 03:22:48;;;;;;;9.18;3.20;;;;;;;9.78;100.00;97751.56;5096489;28;20114;-77
2023/05/10 03:25:15;;;;;;;5.55;3.00;;;;;;;9.72;100.00;97749.25;5096047;28;20415;-77
2023/05/10 03:27:43;;;;;;;7.15;3.42;;;;;;;9.66;100.00;97747.75;5096004;28;20483;-77
2023/05/10 03:30:10;;;;;;;5.05;3.13;;;;;;;9.62;100.00;97750.69;5096239;28;20024;-77
2023/05/10 03:32:36;;;;;;;12.70;3.22;;;;;;;9.63;100.00;97750.59;5095555;28;20499;-76
2023/05/10 03:35:09;;;;;;;8.23;2.63;;;;;;;9.55;100.00;97727.94;5095980;28;20084;-77
2023/05/10 03:37:35;;;;;;;5.15;3.28;;;;;;;9.58;100.00;97727.75;5096216;28;20030;-77
2023/05/10 03:40:01;;;;;;;7.07;2.78;;;;;;;9.55;100.00;97743.94;5095472;28;20407;-78
2023/05/10 03:42:27;;;;;;;6.15;3.67;;;;;;;9.59;100.00;97737.50;5095972;28;20122;-77
2023/05/10 03:44:52;;;;;;;7.20;4.30;;;;;;;9.58;100.00;97733.09;5112668;28;20059;-82
2023/05/10 03:47:18;;;;;;;6.75;4.30;;;;;;;9.53;100.00;97724.50;5095388;28;20035;-80
2023/05/10 03:49:43;;;;;;;9.30;3.92;;;;;;;9.56;100.00;97730.53;5112239;28;20495;-80
2023/05/10 03:52:09;;;;;;;5.88;3.85;;;;;;;9.60;100.00;97732.06;5094637;28;20047;-82
2023/05/10 03:54:34;;;;;;;9.38;5.20;;;;;;;9.60;100.00;97725.84;5112177;28;20163;-82
2023/05/10 03:57:00;;;;;;;7.30;4.60;;;;;;;9.59;100.00;97726.81;5112147;28;20472;-82
2023/05/10 03:59:26;;;;;;;17.35;8.07;;;;;;;9.62;100.00;97724.84;5112293;28;20023;-83
2023/05/10 04:01:52;;;;;;;10.85;6.03;;;;;;;9.66;100.00;97730.84;5094744;28;20047;-83
2023/05/10 04:04:18;;;;;;;18.17;8.02;;;;;;;9.71;100.00;97729.69;5094998;28;20034;-84
2023/05/10 04:06:44;;;;;;;19.52;9.15;;;;;;;9.72;100.00;97727.88;5112135;28;20490;-77
2023/05/10 04:09:10;;;;;;;33.05;10.05;;;;;;;9.80;100.00;97725.63;5111670;28;20026;-77
2023/05/10 04:11:36;;;;;;;17.75;7.63;;;;;;;9.79;100.00;97722.09;5095018;28;20473;-77
2023/05/10 04:14:02;;;;;;;7.00;3.15;;;;;;;9.79;100.00;97705.19;5094779;28;20406;-77
2023/05/10 04:16:27;;;;;;;13.07;5.32;;;;;;;9.82;100.00;97713.91;5094600;28;20047;-79
2023/05/10 04:18:53;;;;;;;11.40;4.75;;;;;;;9.93;100.00;97720.47;5110787;28;20119;-77
2023/05/10 04:21:18;;;;;;;14.63;6.38;;;;;;;10.00;100.00;97711.13;5093893;28;20046;-78
2023/05/10 04:23:44;;;;;;;9.52;5.80;;;;;;;10.08;100.00;97717.78;5110267;28;20024;-83
2023/05/10 04:26:09;;;;;;;9.20;5.40;;;;;;;10.15;100.00;97712.97;5092227;28;20115;-85
2023/05/10 04:28:35;;;;;;;5.80;3.70;;;;;;;10.23;100.00;97705.38;5094352;28;20027;-85
2023/05/10 04:31:05;;;;;;;7.38;4.30;;;;;;;10.20;100.00;97698.41;5093286;28;20516;-86
2023/05/10 04:33:30;;;;;;;7.30;3.92;;;;;;;10.22;100.00;97693.81;5111819;28;20027;-84
2023/05/10 04:35:56;;;;;;;3.70;2.72;;;;;;;10.19;100.00;97691.31;5094271;28;20537;-83
2023/05/10 04:38:22;;;;;;;3.95;2.55;;;;;;;10.11;100.00;97685.53;5094510;28;20031;-84
2023/05/10 04:40:47;;;;;;;7.55;4.00;;;;;;;10.13;100.00;97694.34;5111545;28;20038;-84
2023/05/10 04:43:13;;;;;;;5.93;3.00;;;;;;;10.20;100.00;97690.38;5094016;28;20028;-85
2023/05/10 04:45:38;;;;;;;5.82;2.97;;;;;;;10.25;100.00;97684.75;5111286;28;20019;-84
2023/05/10 04:48:04;;;;;;;6.30;2.80;;;;;;;10.33;100.00;97680.69;5094144;28;20439;-84
2023/05/10 04:50:30;;;;;;;7.85;2.35;;;;;;;10.33;100.00;97674.47;5094124;28;20016;-83
2023/05/10 04:52:55;;;;;;;4.75;2.53;;;;;;;10.26;100.00;97665.97;5111086;28;20041;-84
2023/05/10 04:55:21;;;;;;;5.63;3.60;;;;;;;10.38;100.00;97688.44;5093806;28;20053;-84
2023/05/10 04:57:46;;;;;;;6.95;2.70;;;;;;;10.43;100.00;97664.09;5093913;28;20053;-84
2023/05/10 05:00:12;;;;;;;2.95;2.20;;;;;;;10.46;100.00;97677.28;5111224;28;20494;-85
2023/05/10 05:02:38;;;;;;;6.30;3.72;;;;;;;10.54;100.00;97688.38;5094431;28;20030;-84
2023/05/10 05:05:04;;;;;;;7.13;3.20;;;;;;;10.61;100.00;97669.19;5110044;28;20110;-83
2023/05/10 05:07:30;;;;;;;8.75;5.13;;;;;;;10.44;100.00;97671.16;5110924;28;20032;-84
2023/05/10 05:09:56;;;;;;;3.90;2.17;;;;;;;10.43;100.00;97666.78;5094193;28;20023;-84
2023/05/10 05:12:21;;;;;;;9.27;4.75;;;;;;;10.46;100.00;97656.72;5094274;28;20384;-84
2023/05/10 05:14:47;;;;;;;3.55;2.35;;;;;;;10.52;100.00;97644.84;5094273;28;20475;-84
2023/05/10 05:17:12;;;;;;;8.30;3.45;;;;;;;10.65;100.00;97670.72;5093841;28;20023;-83
2023/05/10 05:19:38;;;;;;;5.22;3.38;;;;;;;10.78;100.00;97668.19;5094173;28;20062;-84
2023/05/10 05:22:04;;;;;;;6.50;2.97;;;;;;;10.80;100.00;97672.47;5111394;28;20028;-85
2023/05/10 05:24:29;;;;;;;13.30;5.97;;;;;;;10.95;100.00;97659.13;5085655;28;20032;-83
2023/05/10 05:26:55;;;;;;;9.65;5.22;;;;;;;11.12;100.00;97659.81;5111980;28;20027;-84
2023/05/10 05:29:20;;;;;;;6.05;2.83;;;;;;;11.17;100.00;97641.63;5094069;28;20031;-84
2023/05/10 05:31:45;;;;;;;7.55;2.63;;;;;;;11.10;100.00;97651.00;5094351;28;20028;-86
2023/05/10 05:34:11;;;;;;;7.13;4.57;;;;;;;11.14;100.00;97636.47;5094193;28;20032;-82
2023/05/10 05:36:38;;;;;;;7.93;4.20;;;;;;;11.22;100.00;97654.72;5093677;28;20028;-84
2023/05/10 05:39:03;;;;;;;4.10;2.85;;;;;;;11.27;100.00;97674.91;5094520;28;20024;-86
2023/05/10 05:41:29;;;;;;;8.35;3.55;;;;;;;11.37;100.00;97713.56;5094006;28;20035;-85
2023/05/10 05:43:54;;;;;;;10.65;4.57;;;;;;;11.29;100.00;97680.16;5111168;28;20106;-84
2023/05/10 05:46:20;;;;;;;7.05;3.42;;;;;;;11.36;100.00;97650.22;5091913;28;20415;-84
2023/05/10 05:48:45;;;;;;;3.63;2.35;;;;;;;11.33;100.00;97663.81;5090821;28;20510;-84
2023/05/10 05:51:11;;;;;;;7.72;3.10;;;;;;;11.29;100.00;97659.59;5093743;28;20031;-84
2023/05/10 05:53:36;;;;;;;7.18;3.13;;;;;;;11.33;100.00;97653.09;5094024;28;20051;-84
2023/05/10 05:56:03;;;;;;;15.23;8.75;;;;;;;11.41;100.00;97660.66;5110544;28;20031;-84
2023/05/10 05:58:28;;;;;;;5.65;2.97;;;;;;;11.39;100.00;97636.63;5093614;28;20106;-85
2023/05/10 06:00:54;;;;;;;2.75;1.83;;;;;;;11.36;100.00;97636.84;5093376;28;20462;-84
2023/05/10 06:03:20;;;;;;;4.50;2.40;;;;;;;11.53;100.00;97632.22;5082323;28;20111;-85
2023/05/10 06:05:46;;;;;;;5.30;2.90;;;;;;;11.65;100.00;97643.00;5093547;28;20024;-84
2023/05/10 06:08:11;;;;;;;3.13;2.40;;;;;;;11.78;100.00;97653.81;5110738;28;20508;-84
2023/05/10 06:10:37;;;;;;;3.58;2.00;;;;;;;11.68;100.00;97637.44;5093549;28;20019;-84
2023/05/10 06:13:03;;;;;;;3.25;1.90;;;;;;;11.91;100.00;97660.09;5093270;28;20047;-84
2023/05/10 06:15:28;;;;;;;5.07;2.47;;;;;;;12.15;100.00;97674.56;5113061;28;20494;-84
2023/05/10 06:18:03;;;;;;;2.92;2.00;;;;;;;12.17;100.00;97659.25;5114186;28;20452;-83
2023/05/10 06:20:31;;;;;;;5.10;2.50;;;;;;;12.26;100.00;97655.94;5097144;28;20031;-84
2023/05/10 06:22:57;;;;;;;4.45;3.08;;;;;;;12.55;100.00;97666.53;5114374;28;20467;-82
2023/05/10 06:25:22;;;;;;;3.88;2.65;;;;;;;12.82;100.00;97675.38;5113577;28;20069;-84
2023/05/10 06:27:48;;;;;;;3.45;2.50;;;;;;;12.94;100.00;97664.66;5113822;28;20095;-84
2023/05/10 06:30:15;;;;;;;3.15;2.10;;;;;;;13.00;100.00;97652.63;5113854;28;20210;-84
2023/05/10 06:32:40;;;;;;;22.30;10.73;;;;;;;13.25;100.00;97662.53;5114673;28;20047;-84
2023/05/10 06:35:06;;;;;;;52.72;26.73;;;;;;;13.82;100.00;97684.34;5097044;28;20028;-83
2023/05/10 06:37:32;;;;;;;9.90;4.43;;;;;;;14.49;100.00;97696.41;5097553;28;20099;-79
2023/05/10 06:39:57;;;;;;;2.45;2.15;;;;;;;14.86;100.00;97678.34;5113194;28;20114;-79
2023/05/10 06:42:25;;;;;;;10.93;5.82;;;;;;;15.06;100.00;97685.72;5113008;28;20392;-79
2023/05/10 06:44:50;;;;;;;6.80;4.22;;;;;;;14.87;91.24;97645.00;5096426;28;20031;-79
2023/05/10 06:47:17;;;;;;;9.50;3.50;;;;;;;14.28;85.58;97628.88;5112895;28;20065;-79
2023/05/10 06:49:42;;;;;;;6.05;3.13;;;;;;;14.04;82.77;97630.72;5095831;28;20070;-79
2023/05/10 06:52:08;;;;;;;5.13;2.50;;;;;;;13.93;84.77;97634.22;5095977;28;20517;-78
2023/05/10 06:54:33;;;;;;;5.60;2.97;;;;;;;13.94;82.96;97633.22;5096027;28;20482;-79
2023/05/10 06:56:59;;;;;;;4.95;3.20;;;;;;;14.19;82.84;97639.47;5113272;28;20096;-80
2023/05/10 06:59:24;;;;;;;7.35;2.67;;;;;;;14.27;80.62;97637.94;5095575;28;20491;-79
2023/05/10 07:01:50;;;;;;;4.68;2.17;;;;;;;14.82;78.67;97644.53;5095791;28;20038;-78
2023/05/10 07:04:17;;;;;;;8.55;3.10;;;;;;;15.88;73.50;97636.84;5095584;28;20028;-78
2023/05/10 07:06:43;;;;;;;6.75;2.20;;;;;;;15.92;63.91;97616.75;5095814;28;20399;-78
2023/05/10 07:09:08;;;;;;;4.63;1.88;;;;;;;15.83;63.00;97612.09;5112760;28;20023;-78
2023/05/10 07:11:34;;;;;;;6.82;2.97;;;;;;;15.70;62.21;97600.59;5095620;28;20542;-78
2023/05/10 07:14:00;;;;;;;4.10;2.90;;;;;;;15.52;62.44;97616.44;5112497;28;20104;-79
2023/05/10 07:16:25;;;;;;;5.97;2.67;;;;;;;15.24;61.84;97600.72;5095239;28;20130;-79
2023/05/10 07:18:52;;;;;;;3.58;2.25;;;;;;;15.29;61.32;97606.59;5111954;28;20057;-78
2023/05/10 07:21:18;;;;;;;5.45;2.10;;;;;;;14.76;61.61;97593.84;5095231;28;20099;-79
2023/05/10 07:23:43;;;;;;;6.15;2.70;;;;;;;14.99;67.86;97626.06;5095058;28;20062;-80
2023/05/10 07:26:10;;;;;;;6.72;2.67;;;;;;;15.06;67.14;97621.06;5091640;28;20032;-78
2023/05/10 07:28:37;;;;;;;4.03;2.33;;;;;;;14.95;62.31;97616.50;5094300;28;20080;-79
2023/05/10 07:31:02;;;;;;;7.97;2.92;;;;;;;14.94;62.91;97619.31;5113394;28;20044;-79
2023/05/10 07:33:28;;;;;;;5.65;3.25;;;;;;;14.97;62.06;97619.09;5112145;28;20106;-79
2023/05/10 07:35:54;;;;;;;5.47;2.15;;;;;;;14.88;62.94;97617.13;5112195;28;20028;-78
2023/05/10 07:38:19;;;;;;;4.85;2.05;;;;;;;15.01;73.50;97640.25;5095197;28;20030;-78
2023/05/10 07:40:45;;;;;;;3.35;2.10;;;;;;;15.00;76.76;97660.13;5111955;28;20064;-78
2023/05/10 07:43:10;;;;;;;6.68;2.50;;;;;;;15.03;70.89;97657.19;5094903;28;20088;-79
2023/05/10 07:45:36;;;;;;;5.40;2.33;;;;;;;14.89;66.79;97640.38;5111943;28;20031;-79
2023/05/10 07:48:01;;;;;;;6.72;3.58;;;;;;;14.85;64.27;97629.00;5094859;28;20515;-79
2023/05/10 07:50:27;;;;;;;5.88;3.20;;;;;;;14.90;60.87;97625.91;5094973;28;20028;-79
2023/05/10 07:52:52;;;;;;;4.97;3.03;;;;;;;14.93;68.58;97652.63;5111785;28;20069;-79
2023/05/10 07:55:19;;;;;;;5.97;2.80;;;;;;;15.13;69.84;97655.47;5094752;28;20118;-79
2023/05/10 07:57:44;;;;;;;3.10;2.40;;;;;;;15.25;70.96;97664.44;5120396;27;20062;-76
2023/05/10 08:00:13;;;;;;;5.35;2.17;;;;;;;15.05;72.56;97662.44;5111729;28;20301;-79
2023/05/10 08:02:38;;;;;;;31.17;15.13;;;;;;;15.00;84.82;97688.88;5094312;28;20438;-77
2023/05/10 08:05:05;;;;;;;7.53;4.20;;;;;;;15.14;67.54;97661.72;5112375;28;20046;-77
2023/05/10 08:07:30;;;;;;;11.38;3.10;;;;;;;15.20;72.51;97670.19;5095298;28;20039;-77
2023/05/10 08:09:56;;;;;;;3.65;2.25;;;;;;;15.16;82.36;97692.13;5111503;28;20024;-78
2023/05/10 08:12:21;;;;;;;3.53;2.00;;;;;;;15.25;84.60;97707.56;5111645;28;20036;-79
2023/05/10 08:14:47;;;;;;;12.50;5.97;;;;;;;15.49;82.00;97697.56;5094232;28;20031;-79
2023/05/10 08:17:12;;;;;;;5.75;2.30;;;;;;;15.59;70.74;97674.31;5111002;28;20119;-79
2023/05/10 08:19:38;;;;;;;4.78;2.63;;;;;;;15.72;68.89;97669.63;5094180;28;20034;-79
2023/05/10 08:22:03;;;;;;;3.28;2.17;;;;;;;15.62;70.69;97674.06;5111244;28;20023;-79
2023/05/10 08:24:29;;;;;;;3.75;2.20;;;;;;;15.42;71.76;97676.56;5111316;28;20031;-78
2023/05/10 08:26:54;;;;;;;3.38;2.30;;;;;;;15.61;73.63;97687.66;5111000;28;20483;-77
2023/05/10 08:29:20;;;;;;;4.47;2.70;;;;;;;15.67;71.53;97677.22;5111248;28;20059;-79
2023/05/10 08:31:45;;;;;;;4.72;3.10;;;;;;;16.51;68.69;97695.47;5110554;28;20079;-77
2023/05/10 08:34:11;;;;;;;5.32;3.35;;;;;;;17.27;64.15;97688.97;5094074;28;20032;-79
2023/05/10 08:36:37;;;;;;;3.38;2.20;;;;;;;17.69;58.30;97668.16;5111099;28;20069;-79
2023/05/10 08:39:02;;;;;;;3.95;2.55;;;;;;;17.39;58.51;97671.69;5092972;28;20065;-79
2023/05/10 08:41:28;;;;;;;8.63;3.33;;;;;;;17.76;56.69;97670.19;5093972;28;20031;-80
2023/05/10 08:43:54;;;;;;;6.32;3.30;;;;;;;17.42;51.35;97621.88;5094076;28;20024;-78
2023/05/10 08:46:21;;;;;;;7.95;3.30;;;;;;;16.96;54.64;97631.31;5093453;28;20035;-78
2023/05/10 08:48:48;;;;;;;8.38;3.90;;;;;;;16.65;54.46;97627.66;5093738;28;20122;-78
2023/05/10 08:51:23;;;;;;;6.20;3.72;;;;;;;16.92;57.25;97646.06;5110772;28;20033;-78
2023/05/10 08:53:49;;;;;;;6.70;3.35;;;;;;;17.42;53.36;97633.56;5093607;28;20034;-78
2023/05/10 08:56:15;;;;;;;5.30;2.50;;;;;;;17.86;52.63;97633.19;5093532;28;20483;-78
2023/05/10 08:58:41;;;;;;;4.07;1.98;;;;;;;18.26;53.46;97648.53;5110730;28;20041;-78
2023/05/10 09:01:07;;;;;;;10.20;2.88;;;;;;;18.13;52.58;97628.97;5110019;28;20110;-78
2023/05/10 09:03:33;;;;;;;5.00;2.33;;;;;;;18.49;52.15;97641.88;5093400;28;20088;-78
2023/05/10 09:05:58;;;;;;;2.70;2.20;;;;;;;19.40;50.22;97655.81;5110706;28;20028;-80
2023/05/10 09:08:25;;;;;;;3.33;2.13;;;;;;;20.77;46.60;97659.38;5092732;28;20059;-78
2023/05/10 09:10:51;;;;;;;2.97;2.15;;;;;;;20.87;46.73;97637.53;5093341;28;20494;-78
2023/05/10 09:13:18;;;;;;;4.60;2.80;;;;;;;21.60;45.40;97653.44;5093724;28;20027;-79
2023/05/10 09:15:44;;;;;;;10.25;4.88;;;;;;;21.63;44.86;97625.00;5111345;28;20454;-78
2023/05/10 09:18:10;;;;;;;6.22;2.85;;;;;;;21.62;44.81;97635.06;5110420;28;20024;-79
2023/05/10 09:20:35;;;;;;;4.28;2.20;;;;;;;21.75;43.11;97609.28;5092933;28;20036;-77
2023/05/10 09:23:01;;;;;;;5.38;2.00;;;;;;;19.89;44.14;97534.31;5093140;28;20487;-77
2023/05/10 09:25:27;;;;;;;3.55;1.98;;;;;;;19.59;45.77;97591.63;5093453;28;20039;-79
2023/05/10 09:27:52;;;;;;;31.75;16.67;;;;;;;19.84;45.13;97589.03;5093178;28;20103;-79
2023/05/10 09:30:29;;;;;;;9.75;4.97;;;;;;;19.71;44.55;97582.28;5093246;28;20414;-79
2023/05/10 09:32:56;;;;;;;3.92;2.13;;;;;;;19.77;43.46;97576.25;5092957;28;20043;-79
2023/05/10 09:35:24;;;;;;;5.05;2.63;;;;;;;19.20;45.13;97561.03;5110203;28;20416;-79
2023/05/10 09:37:53;;;;;;;3.08;2.55;;;;;;;18.78;46.97;97566.88;5093147;28;20028;-78
2023/05/10 09:40:24;;;;;;;3.25;2.40;;;;;;;18.02;50.73;97583.09;5093198;28;20024;-78
2023/05/10 09:42:57;;;;;;;5.07;3.08;;;;;;;17.70;51.13;97588.69;5092707;28;20050;-79
2023/05/10 09:45:25;;;;;;;9.82;4.95;;;;;;;17.79;49.51;97577.03;5093549;28;20132;-79
2023/05/10 09:47:50;;;;;;;6.18;3.00;;;;;;;18.30;48.49;97574.16;5109816;28;20105;-78
2023/05/10 09:50:16;;;;;;;7.55;4.88;;;;;;;18.56;48.87;97598.81;5110852;28;20032;-79
2023/05/10 09:53:06;;;;;;;4.13;2.92;;;;;;;18.31;48.16;97573.13;5097134;28;20027;-79
2023/05/10 09:55:46;;;;;;;3.00;2.40;;;;;;;18.43;48.69;97588.22;5093191;28;20043;-79
2023/05/10 09:58:17;;;;;;;3.20;2.22;;;;;;;18.59;49.56;97593.97;5097702;28;20081;-80
2023/05/10 10:00:44;;;;;;;3.72;2.38;;;;;;;18.79;48.59;97581.28;5097224;28;20036;-79
2023/05/10 10:03:15;;;;;;;4.72;2.83;;;;;;;19.20;47.78;97585.44;5096969;28;20168;-78
2023/05/10 10:05:42;;;;;;;5.05;3.08;;;;;;;18.35;49.19;97563.72;5096928;28;20064;-79
2023/05/10 10:08:08;;;;;;;3.83;2.38;;;;;;;18.18;48.97;97564.44;5097066;28;20039;-78
2023/05/10 10:10:33;;;;;;;4.53;2.38;;;;;;;18.33;48.43;97565.72;5096839;28;20399;-79
2023/05/10 10:12:59;;;;;;;4.97;2.78;;;;;;;18.51;48.28;97574.88;5096593;28;20108;-80
2023/05/10 10:15:25;;;;;;;2.30;2.10;;;;;;;18.78;48.78;97572.28;5097022;28;20375;-79
2023/05/10 10:17:51;;;;;;;4.55;3.38;;;;;;;18.53;49.25;97567.47;5096619;28;20092;-79
2023/05/10 10:20:19;;;;;;;4.68;2.67;;;;;;;18.04;48.94;97548.59;5096992;28;20028;-79
2023/05/10 10:22:45;;;;;;;4.18;2.22;;;;;;;17.80;49.79;97549.00;5096789;28;20038;-80
2023/05/10 10:25:12;;;;;;;8.55;3.05;;;;;;;18.06;50.26;97569.13;5113232;28;20108;-79
2023/05/10 10:27:53;;;;;;;6.68;3.20;;;;;;;18.36;49.77;97562.75;5113777;28;20114;-79
2023/05/10 10:30:25;;;;;;;7.57;3.20;;;;;;;18.28;50.60;97559.88;5105521;28;20160;-79
2023/05/10 10:33:09;;;;;;;5.07;2.60;;;;;;;18.58;49.75;97565.16;5113201;28;20034;-79
2023/05/10 10:35:36;;;;;;;4.47;2.88;;;;;;;18.51;49.17;97547.78;5107285;28;20163;-79
2023/05/10 10:38:01;;;;;;;12.80;7.45;;;;;;;18.45;51.46;97556.47;5113188;28;20500;-79
2023/05/10 10:40:33;;;;;;;8.63;4.53;;;;;;;19.14;50.94;97567.03;5113390;28;20027;-80
2023/05/10 10:43:19;;;;;;;;;;;;;;;19.74;47.38;97571.97;5096838;28;20502;-79
2023/05/10 10:46:15;;;;;;;5.57;2.47;;;;;;;20.03;45.04;97556.34;5095831;28;19922;-80
2023/05/10 10:48:41;;;;;;;4.40;2.63;;;;;;;20.88;45.09;97585.72;5096139;28;20027;-79
2023/05/10 10:51:07;;;;;;;4.55;2.30;;;;;;;21.59;43.58;97585.53;5095840;28;20121;-78
2023/05/10 10:53:33;;;;;;;4.90;1.90;;;;;;;22.15;41.15;97572.16;5095834;28;20501;-79
2023/05/10 10:56:23;;;;;;;2.63;2.10;;;;;;;22.16;41.79;97570.28;5096120;28;20019;-79
2023/05/10 10:58:53;;;;;;;5.65;2.40;;;;;;;22.70;41.05;97566.16;5096600;28;20020;-78
2023/05/10 11:01:19;;;;;;;5.68;2.33;;;;;;;23.01;39.69;97558.13;5096644;28;20027;-79
2023/05/10 11:04:00;;;;;;;3.53;2.20;;;;;;;23.14;38.27;97526.53;5112266;28;20027;-78
2023/05/10 11:06:33;;;;;;;2.80;1.90;;;;;;;22.84;38.60;97499.13;5113005;28;20112;-79
2023/05/10 11:08:59;;;;;;;6.07;3.55;;;;;;;22.05;39.85;97472.53;5113120;28;20032;-79
2023/05/10 11:11:25;;;;;;;3.80;2.72;;;;;;;21.66;40.87;97496.72;5112877;28;20016;-81
2023/05/10 11:13:51;;;;;;;2.75;2.25;;;;;;;21.10;41.17;97480.16;5112880;28;20548;-79
2023/05/10 11:16:23;;;;;;;3.10;2.08;;;;;;;21.07;41.75;97503.91;5112691;28;20108;-77
2023/05/10 11:19:04;;;;;;;4.13;2.15;;;;;;;21.24;41.60;97504.88;5095795;28;20118;-79
2023/05/10 11:21:31;;;;;;;2.88;2.15;;;;;;;21.53;41.64;97515.41;5112337;28;20023;-77
2023/05/10 11:23:57;;;;;;;3.45;2.45;;;;;;;;;;5095202;28;20028;-78
2023/05/10 11:26:31;;;;;;;4.97;2.70;;;;;;;22.52;41.27;97538.13;5111891;28;20029;-77
2023/05/10 11:28:58;;;;;;;3.90;1.98;;;;;;;22.41;41.12;97512.06;5112263;28;20027;-78